Lincoln, Delaware
Current Conditions -  °F | °C
As of 10:54 PM on Friday 19 Dec 2014 (Local Time) from KGED Reporting Station
Clear Clear  
Wind Chill: 31°   Ceiling: Unl
Heat Index: 31°   Visibility: 10mi
Dew Point: 23°   Wind: 3mph
Humidity: 72%   Direction: 310°NW
Pressure: 30.22"   Gusts: NA
Location:  38.87°N, 75.42°W
Report Text: KGED 200354Z AUTO 31003KT 10SM CLR M01/M05 A3022 RMK AO2 SLP234 T10061050
Loading
Personal Weather Stations






























Interactive Weather Map New forecast layout! Learn more

10-Day Weather Forecast

Advertisements
Track Severe Weather on mobile